Time;durP1;ratioP1;P1;durP2;ratioP2;P2;SDS_P1;SDS_P2;PMS_P1;PMS_P2;Temp;Humidity;BMP_temperature;BMP_pressure;BME280_temperature;BME280_humidity;BME280_pressure;Samples;Min_cycle;Max_cycle;Signal;HPM_P1;HPM_P2
2023/02/04 00:02:24;;;;;;;4.82;2.58;;;;;;;;;;5022873;28;20129;-73
2023/02/04 00:04:52;;;;;;;5.00;2.50;;;;;;;;;;5011710;28;20046;-74
2023/02/04 00:07:19;;;;;;;6.30;2.78;;;;;;;;;;5011980;28;20045;-74
2023/02/04 00:09:46;;;;;;;7.22;2.97;;;;;;;;;;5008362;28;20046;-73
2023/02/04 00:12:13;;;;;;;5.82;2.67;;;;;;;;;;5013324;28;20415;-73
2023/02/04 00:14:40;;;;;;;5.50;2.47;;;;;;;;;;5015387;28;20049;-74
2023/02/04 00:17:09;;;;;;;5.45;2.90;;;;;;;;;;5015046;28;20516;-74
2023/02/04 00:19:36;;;;;;;9.82;4.35;;;;;;;;;;5015188;28;20050;-74
2023/02/04 00:22:05;;;;;;;5.75;3.00;;;;;;;;;;5014222;28;20046;-74
2023/02/04 00:24:32;;;;;;;5.20;2.53;;;;;;;;;;5014943;28;20050;-74
2023/02/04 00:26:59;;;;;;;4.88;2.22;;;;;;;;;;5014944;28;20053;-74
2023/02/04 00:29:25;;;;;;;6.90;2.88;;;;;;;;;;5010629;28;20038;-74
2023/02/04 00:31:52;;;;;;;5.07;2.55;;;;;;;;;;5015314;28;20056;-74
2023/02/04 00:34:19;;;;;;;5.15;2.35;;;;;;;;;;5015119;28;20124;-74
2023/02/04 00:36:45;;;;;;;5.75;2.40;;;;;;;;;;5015170;28;20082;-74
2023/02/04 00:39:13;;;;;;;5.28;2.40;;;;;;;;;;5014300;28;20519;-74
2023/02/04 00:41:40;;;;;;;4.25;2.55;;;;;;;;;;5012783;28;20042;-73
2023/02/04 00:44:07;;;;;;;4.15;2.40;;;;;;;;;;5015073;28;20072;-74
2023/02/04 00:46:33;;;;;;;5.70;2.58;;;;;;;;;;5015196;28;20128;-74
2023/02/04 00:49:00;;;;;;;4.80;2.60;;;;;;;;;;5014504;28;20046;-75
2023/02/04 00:51:26;;;;;;;4.50;2.50;;;;;;;;;;5014902;28;20581;-74
2023/02/04 00:53:53;;;;;;;5.03;2.40;;;;;;;;;;5014461;28;20054;-74
2023/02/04 00:56:21;;;;;;;4.93;2.80;;;;;;;;;;5014866;28;20052;-73
2023/02/04 00:58:48;;;;;;;6.63;2.80;;;;;;;;;;5014878;28;20068;-75
2023/02/04 01:01:14;;;;;;;4.40;2.40;;;;;;;;;;5014603;28;20050;-74
2023/02/04 01:03:41;;;;;;;4.65;2.65;;;;;;;;;;5013753;28;20056;-73
2023/02/04 01:06:07;;;;;;;5.72;2.83;;;;;;;;;;5015202;28;20077;-74
2023/02/04 01:08:34;;;;;;;5.40;2.53;;;;;;;;;;5014308;28;20052;-74
2023/02/04 01:11:01;;;;;;;5.82;2.50;;;;;;;;;;5014456;28;20487;-75
2023/02/04 01:13:29;;;;;;;4.95;2.30;;;;;;;;;;5014165;28;20046;-75
2023/02/04 01:15:55;;;;;;;10.88;3.22;;;;;;;;;;5015180;28;20076;-75
2023/02/04 01:18:22;;;;;;;5.65;2.67;;;;;;;;;;5014818;28;20046;-74
2023/02/04 01:20:49;;;;;;;5.25;2.67;;;;;;;;;;5014442;28;20050;-75
2023/02/04 01:23:15;;;;;;;4.40;2.40;;;;;;;;;;5014022;28;20042;-75
2023/02/04 01:25:42;;;;;;;5.15;2.65;;;;;;;;;;5014187;28;20496;-74
2023/02/04 01:28:08;;;;;;;5.95;2.55;;;;;;;;;;5014095;28;20126;-74
2023/02/04 01:30:36;;;;;;;5.10;2.80;;;;;;;;;;5014188;28;20134;-74
2023/02/04 01:33:03;;;;;;;4.88;2.05;;;;;;;;;;5013976;28;20060;-74
2023/02/04 01:35:30;;;;;;;3.65;2.10;;;;;;;;;;5013871;28;20064;-74
2023/02/04 01:37:56;;;;;;;7.05;2.13;;;;;;;;;;5014454;28;20444;-73
2023/02/04 01:40:23;;;;;;;4.72;1.80;;;;;;;;;;5013894;28;20060;-73
2023/02/04 01:42:50;;;;;;;3.92;1.90;;;;;;;;;;5013985;28;20093;-74
2023/02/04 01:45:17;;;;;;;5.93;2.05;;;;;;;;;;5013868;28;20512;-74
2023/02/04 01:47:46;;;;;;;5.55;2.10;;;;;;;;;;5014292;28;20046;-74
2023/02/04 01:50:14;;;;;;;6.43;1.83;;;;;;;;;;4994451;28;20050;-75
2023/02/04 01:52:41;;;;;;;4.97;2.00;;;;;;;;;;4994538;28;20052;-74
2023/02/04 01:55:13;;;;;;;7.47;2.33;;;;;;;;;;5013891;28;20137;-73
2023/02/04 01:57:40;;;;;;;5.05;2.00;;;;;;;;;;5014175;28;20503;-74
2023/02/04 02:00:14;;;;;;;8.52;2.35;;;;;;;;;;5014486;28;20121;-74
2023/02/04 02:02:43;;;;;;;5.63;2.20;;;;;;;;;;5013344;28;20104;-74
2023/02/04 02:05:14;;;;;;;10.70;2.38;;;;;;;;;;5009604;28;20125;-74
2023/02/04 02:07:41;;;;;;;8.32;2.50;;;;;;;;;;5011721;28;20412;-74
2023/02/04 02:10:11;;;;;;;6.22;2.20;;;;;;;;;;5013421;28;20054;-74
2023/02/04 02:12:38;;;;;;;5.22;2.38;;;;;;;;;;5013341;28;20049;-73
2023/02/04 02:18:26;;;;;;;6.45;2.28;;;;;;;;;;5007916;28;20408;-73
2023/02/04 02:20:56;;;;;;;7.45;2.15;;;;;;;;;;5013296;28;20519;-74
2023/02/04 02:23:26;;;;;;;3.90;2.22;;;;;;;;;;5012508;28;20049;-75
2023/02/04 02:25:54;;;;;;;;;;;;;;;;;;5013455;28;20045;-73
2023/02/04 02:28:22;;;;;;;5.78;2.13;;;;;;;;;;5014469;28;19944;-73
2023/02/04 02:30:50;;;;;;;8.23;2.67;;;;;;;;;;5014987;28;20137;-74
2023/02/04 02:33:19;;;;;;;8.35;2.72;;;;;;;;;;5014676;28;20080;-74
2023/02/04 02:35:55;;;;;;;9.88;2.58;;;;;;;;;;5146612;27;20368;-49
2023/02/04 02:38:22;;;;;;;8.93;3.00;;;;;;;;;;5129689;27;20061;-50
2023/02/04 02:40:49;;;;;;;7.63;2.92;;;;;;;;;;5144165;27;20103;-49
2023/02/04 02:43:19;;;;;;;8.90;3.17;;;;;;;;;;5150453;27;20491;-49
2023/02/04 02:45:47;;;;;;;8.25;2.72;;;;;;;;;;5137070;27;20051;-55
2023/02/04 02:48:14;;;;;;;8.18;2.60;;;;;;;;;;5129667;28;20096;-49
2023/02/04 02:50:41;;;;;;;8.55;2.60;;;;;;;;;;5141727;27;20078;-52
2023/02/04 02:53:13;;;;;;;10.35;2.97;;;;;;;;;;5150416;27;20092;-54
2023/02/04 02:55:40;;;;;;;10.50;3.17;;;;;;;;;;5138885;27;20044;-51
2023/02/04 02:58:14;;;;;;;10.07;3.10;;;;;;;;;;5130151;28;20389;-53
2023/02/04 03:00:41;;;;;;;11.18;2.70;;;;;;;;;;5129966;27;20377;-52
2023/02/04 03:03:11;;;;;;;10.40;2.80;;;;;;;;;;5129250;28;20512;-51
2023/02/04 03:05:44;;;;;;;10.27;2.85;;;;;;;;;;5130396;27;20047;-52
2023/02/04 03:08:15;;;;;;;9.75;3.05;;;;;;;;;;5129288;28;20471;-48
2023/02/04 03:10:43;;;;;;;8.70;2.92;;;;;;;;;;5129701;28;20047;-55
2023/02/04 03:13:11;;;;;;;9.13;2.83;;;;;;;;;;5129269;28;20074;-54
2023/02/04 03:15:38;;;;;;;7.00;2.67;;;;;;;;;;5129718;28;20145;-51
2023/02/04 03:18:05;;;;;;;10.90;3.88;;;;;;;;;;5129356;28;20078;-50
2023/02/04 03:20:33;;;;;;;11.48;3.45;;;;;;;;;;5129356;28;20043;-51
2023/02/04 03:23:00;;;;;;;10.32;3.38;;;;;;;;;;5129403;28;20048;-51
2023/02/04 03:25:28;;;;;;;7.15;2.67;;;;;;;;;;5129357;28;20048;-54
2023/02/04 03:27:55;;;;;;;8.73;3.22;;;;;;;;;;5129431;28;20039;-53
2023/02/04 03:30:23;;;;;;;9.45;3.25;;;;;;;;;;5128960;28;20059;-53
2023/02/04 03:32:50;;;;;;;10.00;3.17;;;;;;;;;;5129267;28;20644;-52
2023/02/04 03:35:17;;;;;;;11.15;3.10;;;;;;;;;;5129109;28;20437;-52
2023/02/04 03:37:44;;;;;;;11.07;3.03;;;;;;;;;;5129192;28;20043;-49
2023/02/04 03:40:12;;;;;;;10.23;3.30;;;;;;;;;;5129140;28;20044;-51
2023/02/04 03:42:40;;;;;;;9.02;3.22;;;;;;;;;;5129268;28;20050;-51
2023/02/04 03:45:08;;;;;;;8.20;3.45;;;;;;;;;;5127734;28;20051;-52
2023/02/04 03:47:34;;;;;;;16.83;4.88;;;;;;;;;;5115025;28;20081;-49
2023/02/04 03:50:01;;;;;;;14.02;3.90;;;;;;;;;;5115224;28;20039;-51
2023/02/04 03:52:28;;;;;;;11.00;3.70;;;;;;;;;;5115075;28;20289;-55
2023/02/04 03:54:55;;;;;;;13.70;3.65;;;;;;;;;;5115315;28;20488;-53
2023/02/04 03:57:21;;;;;;;8.57;2.90;;;;;;;;;;5115244;28;20047;-50
2023/02/04 03:59:50;;;;;;;6.60;3.00;;;;;;;;;;5114752;28;20051;-52
2023/02/04 04:02:16;;;;;;;10.50;3.08;;;;;;;;;;5114789;28;20047;-48
2023/02/04 04:04:43;;;;;;;7.75;3.17;;;;;;;;;;5114818;28;20047;-54
2023/02/04 04:07:10;;;;;;;10.18;3.42;;;;;;;;;;5114971;28;20484;-54
2023/02/04 04:09:37;;;;;;;11.40;3.40;;;;;;;;;;5114758;28;20051;-48
2023/02/04 04:12:04;;;;;;;12.70;4.35;;;;;;;;;;5115125;28;20100;-50
2023/02/04 04:14:31;;;;;;;11.57;3.58;;;;;;;;;;5114841;28;20608;-49
2023/02/04 04:16:59;;;;;;;11.90;3.70;;;;;;;;;;5114747;28;20052;-54
2023/02/04 04:19:26;;;;;;;13.82;3.10;;;;;;;;;;5114959;28;20458;-51
2023/02/04 04:21:52;;;;;;;9.48;3.30;;;;;;;;;;5114659;28;20462;-50
2023/02/04 04:24:19;;;;;;;11.68;3.65;;;;;;;;;;5114522;28;20051;-49
2023/02/04 04:26:46;;;;;;;17.83;4.15;;;;;;;;;;5114565;28;20055;-49
2023/02/04 04:29:13;;;;;;;13.48;3.78;;;;;;;;;;5114508;28;20047;-52
2023/02/04 04:31:39;;;;;;;11.68;3.22;;;;;;;;;;5114359;28;20512;-51
2023/02/04 04:34:08;;;;;;;14.98;3.53;;;;;;;;;;5114199;28;20055;-55
2023/02/04 04:36:34;;;;;;;11.50;3.63;;;;;;;;;;5114433;28;20089;-53
2023/02/04 04:39:01;;;;;;;11.35;3.47;;;;;;;;;;5114207;28;20048;-50
2023/02/04 04:41:28;;;;;;;13.27;4.57;;;;;;;;;;5114239;28;20047;-51
2023/02/04 04:43:55;;;;;;;13.60;3.78;;;;;;;;;;5114625;28;20048;-52
2023/02/04 04:46:22;;;;;;;12.52;3.75;;;;;;;;;;5114105;28;20055;-52
2023/02/04 04:48:48;;;;;;;10.82;3.40;;;;;;;;;;5114022;28;20051;-52
2023/02/04 04:51:17;;;;;;;11.63;4.28;;;;;;;;;;5113822;28;20508;-53
2023/02/04 04:53:43;;;;;;;12.02;3.47;;;;;;;;;;5114104;28;20040;-56
2023/02/04 04:56:10;;;;;;;15.15;3.50;;;;;;;;;;5113755;28;20291;-51
2023/02/04 04:58:37;;;;;;;11.85;3.67;;;;;;;;;;5112806;28;20093;-52
2023/02/04 05:01:04;;;;;;;8.82;3.15;;;;;;;;;;5113715;28;20557;-53
2023/02/04 05:03:31;;;;;;;12.15;3.33;;;;;;;;;;5113851;28;20043;-52
2023/02/04 05:05:58;;;;;;;12.52;3.35;;;;;;;;;;5113976;28;20481;-51
2023/02/04 05:08:26;;;;;;;9.48;3.70;;;;;;;;;;5113576;28;20048;-51
2023/02/04 05:10:53;;;;;;;9.32;3.25;;;;;;;;;;5113588;28;20040;-52
2023/02/04 05:13:20;;;;;;;15.80;4.00;;;;;;;;;;5113538;28;20051;-55
2023/02/04 05:15:46;;;;;;;17.63;4.90;;;;;;;;;;5113409;28;20066;-55
2023/02/04 05:18:13;;;;;;;11.48;3.80;;;;;;;;;;5113550;28;20062;-52
2023/02/04 05:20:40;;;;;;;14.02;3.60;;;;;;;;;;5113297;28;20412;-53
2023/02/04 05:23:07;;;;;;;12.02;3.35;;;;;;;;;;5113575;28;20081;-51
2023/02/04 05:25:35;;;;;;;10.52;3.60;;;;;;;;;;5113387;28;20385;-51
2023/02/04 05:28:02;;;;;;;11.68;4.90;;;;;;;;;;5113506;28;20168;-52
2023/02/04 05:30:29;;;;;;;8.15;3.10;;;;;;;;;;5113379;28;20044;-51
2023/02/04 05:32:55;;;;;;;12.27;3.00;;;;;;;;;;5113381;28;20044;-55
2023/02/04 05:35:22;;;;;;;13.60;3.17;;;;;;;;;;5113221;28;20039;-54
2023/02/04 05:37:49;;;;;;;12.15;3.00;;;;;;;;;;5113355;28;20440;-54
2023/02/04 05:40:16;;;;;;;14.00;3.70;;;;;;;;;;5113087;28;20550;-53
2023/02/04 05:42:44;;;;;;;12.40;3.50;;;;;;;;;;5113252;28;20094;-48
2023/02/04 05:45:15;;;;;;;6.43;2.65;;;;;;;;;;5113714;27;20489;-48
2023/02/04 05:47:42;;;;;;;11.95;3.25;;;;;;;;;;5113810;28;20412;-48
2023/02/04 05:50:09;;;;;;;11.45;3.35;;;;;;;;;;5118016;27;20118;-52
2023/02/04 05:52:36;;;;;;;8.88;2.58;;;;;;;;;;5112525;27;20044;-48
2023/02/04 05:55:03;;;;;;;10.35;4.05;;;;;;;;;;5112193;28;20104;-49
2023/02/04 05:57:30;;;;;;;11.23;3.25;;;;;;;;;;5112750;28;20040;-49
2023/02/04 05:59:58;;;;;;;10.40;3.22;;;;;;;;;;5112475;28;20043;-54
2023/02/04 06:02:25;;;;;;;8.35;2.65;;;;;;;;;;5112319;28;20112;-52
2023/02/04 06:04:52;;;;;;;10.05;3.17;;;;;;;;;;5112856;27;20393;-53
2023/02/04 06:07:19;;;;;;;11.30;4.03;;;;;;;;;;5112461;28;20135;-53
2023/02/04 06:09:46;;;;;;;14.70;3.40;;;;;;;;;;5112210;27;20043;-54
2023/02/04 06:12:12;;;;;;;11.57;3.55;;;;;;;;;;5112251;28;20044;-50
2023/02/04 06:14:39;;;;;;;14.35;4.03;;;;;;;;;;5128473;27;20051;-50
2023/02/04 06:17:07;;;;;;;12.30;3.60;;;;;;;;;;5132695;27;20180;-54
2023/02/04 06:19:34;;;;;;;12.75;3.38;;;;;;;;;;5117417;27;20104;-50
2023/02/04 06:22:01;;;;;;;14.32;4.03;;;;;;;;;;5111996;28;20044;-50
2023/02/04 06:24:28;;;;;;;10.15;3.13;;;;;;;;;;5125784;27;20119;-52
2023/02/04 06:26:54;;;;;;;10.30;3.58;;;;;;;;;;5133073;27;20103;-53
2023/02/04 06:29:21;;;;;;;13.05;3.70;;;;;;;;;;5120369;27;20116;-52
2023/02/04 06:31:48;;;;;;;10.00;3.95;;;;;;;;;;5111991;28;20044;-54
2023/02/04 06:34:16;;;;;;;9.85;3.97;;;;;;;;;;5112464;28;20089;-52
2023/02/04 06:36:43;;;;;;;12.32;3.67;;;;;;;;;;5111974;28;20104;-50
2023/02/04 06:39:10;;;;;;;11.88;3.85;;;;;;;;;;5121215;28;20047;-53
2023/02/04 06:41:36;;;;;;;10.68;3.45;;;;;;;;;;5111751;28;20048;-54
2023/02/04 06:44:03;;;;;;;8.73;3.22;;;;;;;;;;5119698;28;20118;-51
2023/02/04 06:46:30;;;;;;;9.70;3.15;;;;;;;;;;5132635;28;20062;-52
2023/02/04 06:48:57;;;;;;;9.00;2.67;;;;;;;;;;5126909;28;20100;-50
2023/02/04 06:51:26;;;;;;;11.75;3.78;;;;;;;;;;5132652;28;20488;-51
2023/02/04 06:53:53;;;;;;;10.75;3.35;;;;;;;;;;5126506;28;20048;-53
2023/02/04 06:56:20;;;;;;;11.27;3.63;;;;;;;;;;5111580;28;20044;-49
2023/02/04 06:58:46;;;;;;;16.15;4.32;;;;;;;;;;5115700;28;20096;-51
2023/02/04 07:01:13;;;;;;;8.18;3.08;;;;;;;;;;5132254;28;20124;-54
2023/02/04 07:03:40;;;;;;;15.73;4.05;;;;;;;;;;5125544;28;20092;-49
2023/02/04 07:06:07;;;;;;;9.15;3.45;;;;;;;;;;5111711;28;20051;-49
2023/02/04 07:08:35;;;;;;;9.95;3.45;;;;;;;;;;5112113;28;20104;-50
2023/02/04 07:11:02;;;;;;;9.82;3.10;;;;;;;;;;5111481;28;20083;-50
2023/02/04 07:13:30;;;;;;;10.27;3.20;;;;;;;;;;5112393;28;20118;-51
2023/02/04 07:15:57;;;;;;;12.05;3.42;;;;;;;;;;5112281;28;20127;-49
2023/02/04 07:18:24;;;;;;;8.40;3.35;;;;;;;;;;5111796;28;20117;-52
2023/02/04 07:20:50;;;;;;;9.57;3.50;;;;;;;;;;5112452;28;20044;-52
2023/02/04 07:23:17;;;;;;;10.30;3.00;;;;;;;;;;5131754;27;20043;-50
2023/02/04 07:25:45;;;;;;;11.07;3.35;;;;;;;;;;5118260;27;20055;-49
2023/02/04 07:28:12;;;;;;;9.15;2.85;;;;;;;;;;5130356;27;20123;-50
2023/02/04 07:30:39;;;;;;;11.05;2.92;;;;;;;;;;5136251;27;20051;-54
2023/02/04 07:33:06;;;;;;;8.07;3.92;;;;;;;;;;5134316;27;20047;-53
2023/02/04 07:35:32;;;;;;;12.32;3.63;;;;;;;;;;5135652;27;20043;-54
2023/02/04 07:37:59;;;;;;;11.55;2.88;;;;;;;;;;5123571;27;20047;-52
2023/02/04 07:40:26;;;;;;;11.05;3.67;;;;;;;;;;5115001;28;20047;-53
2023/02/04 07:42:54;;;;;;;9.10;3.10;;;;;;;;;;5114979;27;20047;-51
2023/02/04 07:45:21;;;;;;;8.27;2.88;;;;;;;;;;5114755;28;20507;-54
2023/02/04 07:47:48;;;;;;;14.20;3.40;;;;;;;;;;5123965;27;20075;-55
2023/02/04 07:50:15;;;;;;;13.93;3.90;;;;;;;;;;5135759;27;20047;-49
2023/02/04 07:52:42;;;;;;;9.90;2.90;;;;;;;;;;5126456;27;20035;-50
2023/02/04 07:55:10;;;;;;;14.45;3.60;;;;;;;;;;5114574;28;20108;-50
2023/02/04 07:57:37;;;;;;;8.82;3.22;;;;;;;;;;5127200;27;20096;-50
2023/02/04 08:00:06;;;;;;;9.88;4.47;;;;;;;;;;5118497;27;20100;-51
2023/02/04 08:02:33;;;;;;;8.57;2.95;;;;;;;;;;5114635;27;20435;-52
2023/02/04 08:05:00;;;;;;;10.13;3.65;;;;;;;;;;5113681;28;20039;-50
2023/02/04 08:07:26;;;;;;;9.85;3.40;;;;;;;;;;5115888;27;20100;-49
2023/02/04 08:09:53;;;;;;;9.55;3.10;;;;;;;;;;5123330;27;20043;-52
2023/02/04 08:12:20;;;;;;;9.05;3.53;;;;;;;;;;5115452;27;20035;-51
2023/02/04 08:14:47;;;;;;;9.13;2.70;;;;;;;;;;5114263;28;20043;-53
2023/02/04 08:17:15;;;;;;;11.32;3.20;;;;;;;;;;5115340;27;20085;-53
2023/02/04 08:19:42;;;;;;;6.88;3.03;;;;;;;;;;5114349;28;20143;-54
2023/02/04 08:22:10;;;;;;;12.23;4.47;;;;;;;;;;5114354;28;20048;-52
2023/02/04 08:24:37;;;;;;;9.77;3.72;;;;;;;;;;5114921;28;20048;-55
2023/02/04 08:27:04;;;;;;;8.50;3.50;;;;;;;;;;5118610;27;20107;-52
2023/02/04 08:29:30;;;;;;;11.60;3.75;;;;;;;;;;5129374;27;20096;-50
2023/02/04 08:31:57;;;;;;;12.15;4.38;;;;;;;;;;5115039;27;20047;-55
2023/02/04 08:34:25;;;;;;;10.63;3.70;;;;;;;;;;5134687;27;20047;-52
2023/02/04 08:36:52;;;;;;;8.75;3.00;;;;;;;;;;5119692;27;20047;-52
2023/02/04 08:39:19;;;;;;;11.90;3.25;;;;;;;;;;5134803;27;20055;-52
2023/02/04 08:41:46;;;;;;;13.32;4.07;;;;;;;;;;5133989;27;20047;-54
2023/02/04 08:44:13;;;;;;;15.88;3.40;;;;;;;;;;5114105;28;20101;-53
2023/02/04 08:46:40;;;;;;;8.88;4.15;;;;;;;;;;5113441;28;20054;-54
2023/02/04 08:49:07;;;;;;;13.50;3.55;;;;;;;;;;5114500;27;20109;-52
2023/02/04 08:51:35;;;;;;;11.82;3.75;;;;;;;;;;5113574;27;20448;-51
2023/02/04 08:54:02;;;;;;;12.55;4.38;;;;;;;;;;5114172;28;20485;-50
2023/02/04 08:56:30;;;;;;;13.85;4.22;;;;;;;;;;5123582;27;20539;-55
2023/02/04 08:58:57;;;;;;;10.00;4.18;;;;;;;;;;5115041;27;20146;-53
2023/02/04 09:01:24;;;;;;;12.55;3.70;;;;;;;;;;5117161;27;20108;-50
2023/02/04 09:03:50;;;;;;;12.75;3.22;;;;;;;;;;5113391;28;20073;-51
2023/02/04 09:06:17;;;;;;;9.70;4.25;;;;;;;;;;5114183;28;20092;-50
2023/02/04 09:08:45;;;;;;;10.25;3.50;;;;;;;;;;5113487;28;20044;-54
2023/02/04 09:11:13;;;;;;;13.15;3.90;;;;;;;;;;5114562;27;20100;-55
2023/02/04 09:13:41;;;;;;;10.82;3.50;;;;;;;;;;5113667;28;20079;-51
2023/02/04 09:16:09;;;;;;;10.77;2.75;;;;;;;;;;5119997;27;20051;-51
2023/02/04 09:18:37;;;;;;;12.52;2.83;;;;;;;;;;5114326;27;20047;-53
2023/02/04 09:21:04;;;;;;;9.05;3.20;;;;;;;;;;5118283;27;20529;-51
2023/02/04 09:23:31;;;;;;;11.82;2.90;;;;;;;;;;5133850;27;20043;-51
2023/02/04 09:26:03;;;;;;;8.50;2.47;;;;;;;;;;5131205;27;20047;-54
2023/02/04 09:28:30;;;;;;;8.95;2.60;;;;;;;;;;5113355;28;20047;-51
2023/02/04 09:30:59;;;;;;;9.90;2.55;;;;;;;;;;5114436;27;20039;-53
2023/02/04 09:33:27;;;;;;;7.95;2.90;;;;;;;;;;5113554;28;20075;-54
2023/02/04 09:36:01;;;;;;;9.57;2.47;;;;;;;;;;5113883;28;20489;-51
2023/02/04 09:38:28;;;;;;;8.68;3.38;;;;;;;;;;5114321;28;20397;-51
2023/02/04 09:41:02;;;;;;;8.73;3.22;;;;;;;;;;5114332;28;20051;-62
2023/02/04 09:43:31;;;;;;;11.43;3.03;;;;;;;;;;5113101;28;20043;-54
2023/02/04 09:45:59;;;;;;;8.50;3.47;;;;;;;;;;5113261;28;20044;-58
2023/02/04 09:48:26;;;;;;;9.93;4.13;;;;;;;;;;5112900;28;20055;-61
2023/02/04 09:51:00;;;;;;;11.25;3.63;;;;;;;;;;5127713;27;20046;-65
2023/02/04 09:53:27;;;;;;;12.48;4.28;;;;;;;;;;5133343;27;20450;-61
2023/02/04 09:55:54;;;;;;;10.63;3.63;;;;;;;;;;5115655;27;20043;-69
2023/02/04 09:58:25;;;;;;;15.50;4.68;;;;;;;;;;5132846;27;20452;-70
2023/02/04 10:00:59;;;;;;;14.48;3.90;;;;;;;;;;5116211;27;20055;-52
2023/02/04 10:03:26;;;;;;;10.63;3.97;;;;;;;;;;5114503;27;20039;-50
2023/02/04 10:05:53;;;;;;;10.98;3.53;;;;;;;;;;5111648;28;20043;-51
2023/02/04 10:08:28;;;;;;;12.20;3.38;;;;;;;;;;5102724;27;20051;-50
2023/02/04 10:10:55;;;;;;;13.75;3.53;;;;;;;;;;5110498;28;20049;-50
2023/02/04 10:13:31;;;;;;;7.88;2.35;;;;;;;;;;5111857;27;20043;-49
2023/02/04 10:15:58;;;;;;;5.15;2.08;;;;;;;;;;5107038;28;20067;-49
2023/02/04 10:18:28;;;;;;;6.60;1.52;;;;;;;;;;5117151;27;20092;-48
2023/02/04 10:20:57;;;;;;;4.93;1.70;;;;;;;;;;5107241;28;20055;-48
2023/02/04 10:23:24;;;;;;;4.50;1.58;;;;;;;;;;5110146;28;20492;-49
2023/02/04 10:25:51;;;;;;;5.72;1.23;;;;;;;;;;5110763;28;20059;-48
2023/02/04 10:28:19;;;;;;;4.13;1.33;;;;;;;;;;5117763;27;20043;-49
2023/02/04 10:30:48;;;;;;;3.22;1.70;;;;;;;;;;5131862;27;20043;-48
2023/02/04 10:33:24;;;;;;;4.05;1.75;;;;;;;;;;5112734;27;20051;-47
2023/02/04 10:35:53;;;;;;;5.70;1.48;;;;;;;;;;5113942;28;20069;-50
2023/02/04 10:38:20;;;;;;;5.32;1.67;;;;;;;;;;5110449;28;20549;-49
2023/02/04 10:40:48;;;;;;;8.80;1.98;;;;;;;;;;5110610;28;20308;-48
2023/02/04 10:43:17;;;;;;;2.88;1.40;;;;;;;;;;5118858;28;20059;-52
2023/02/04 10:45:46;;;;;;;5.10;1.50;;;;;;;;;;5131035;28;20066;-50
2023/02/04 10:48:21;;;;;;;4.03;1.73;;;;;;;;;;5130559;28;20549;-48
2023/02/04 10:50:49;;;;;;;9.02;2.47;;;;;;;;;;5098562;28;20048;-47
2023/02/04 10:56:04;;;;;;;4.03;1.40;;;;;;;;;;5091265;28;20420;-53
2023/02/04 10:58:32;;;;;;;3.80;1.20;;;;;;;;;;5094586;28;20047;-53
2023/02/04 11:00:59;;;;;;;3.72;1.42;;;;;;;;;;5094835;28;20044;-52
2023/02/04 11:03:30;;;;;;;3.10;1.30;;;;;;;;;;5110582;27;20039;-55
2023/02/04 11:06:03;;;;;;;2.28;1.00;;;;;;;;;;5135505;27;20054;-50
2023/02/04 11:08:34;;;;;;;3.40;1.35;;;;;;;;;;5135284;27;20065;-49
2023/02/04 11:11:04;;;;;;;5.10;1.45;;;;;;;;;;5135169;27;20047;-51
2023/02/04 11:13:42;;;;;;;5.85;1.75;;;;;;;;;;5135440;27;20055;-51
2023/02/04 11:16:25;;;;;;;4.57;1.38;;;;;;;;;;5134326;27;20047;-50
2023/02/04 11:18:55;;;;;;;6.13;1.30;;;;;;;;;;5124855;27;20127;-51
2023/02/04 11:21:25;;;;;;;6.15;1.73;;;;;;;;;;5114091;28;20069;-51
2023/02/04 11:24:04;;;;;;;4.90;1.50;;;;;;;;;;5113134;27;20054;-48
2023/02/04 11:26:39;;;;;;;5.55;1.85;;;;;;;;;;5112996;27;20052;-51
2023/02/04 11:29:24;;;;;;;4.65;1.75;;;;;;;;;;5114237;27;20082;-49
2023/02/04 11:32:00;;;;;;;4.53;2.05;;;;;;;;;;5113412;28;20044;-51
2023/02/04 11:34:32;;;;;;;5.07;1.75;;;;;;;;;;5126087;27;20043;-53
2023/02/04 11:37:12;;;;;;;5.68;1.77;;;;;;;;;;5134246;27;20043;-50
2023/02/04 11:39:44;;;;;;;3.95;1.83;;;;;;;;;;5119958;27;20047;-52
2023/02/04 11:42:19;;;;;;;2.95;1.30;;;;;;;;;;5113772;28;20117;-50
2023/02/04 11:44:51;;;;;;;4.30;1.55;;;;;;;;;;5114009;27;20084;-54
2023/02/04 11:47:19;;;;;;;3.92;1.20;;;;;;;;;;5113983;28;20497;-55
2023/02/04 11:49:54;;;;;;;4.47;1.60;;;;;;;;;;5114255;27;20051;-54
2023/02/04 11:52:21;;;;;;;5.55;1.52;;;;;;;;;;5112660;28;20051;-50
2023/02/04 11:54:54;;;;;;;5.32;1.90;;;;;;;;;;5125004;27;20074;-51
2023/02/04 11:57:21;;;;;;;4.78;1.73;;;;;;;;;;5119489;27;20100;-51
2023/02/04 11:59:47;;;;;;;5.03;2.03;;;;;;;;;;5125151;27;20082;-53
2023/02/04 12:02:16;;;;;;;4.38;1.80;;;;;;;;;;5133295;27;20043;-51
2023/02/04 12:04:53;;;;;;;4.93;2.10;;;;;;;;;;5121856;27;20047;-52
2023/02/04 12:07:28;;;;;;;3.53;2.03;;;;;;;;;;5111978;28;20424;-50
2023/02/04 12:09:56;;;;;;;7.22;2.88;;;;;;;;;;5124944;27;20062;-52
2023/02/04 12:12:24;;;;;;;4.78;2.03;;;;;;;;;;5132888;27;20466;-50
2023/02/04 12:14:58;;;;;;;8.55;2.25;;;;;;;;;;5121421;27;20416;-47
2023/02/04 12:17:25;;;;;;;5.60;2.88;;;;;;;;;;5112279;28;20075;-48
2023/02/04 12:19:53;;;;;;;3.53;2.10;;;;;;;;;;5113941;27;20043;-52
2023/02/04 12:22:20;;;;;;;5.88;2.78;;;;;;;;;;5112770;28;20105;-52
2023/02/04 12:24:47;;;;;;;7.13;3.05;;;;;;;;;;5112861;28;20157;-49
2023/02/04 12:27:13;;;;;;;3.83;2.08;;;;;;;;;;5112770;28;20044;-55
2023/02/04 12:29:40;;;;;;;3.90;1.85;;;;;;;;;;5112885;28;20485;-55
2023/02/04 12:32:07;;;;;;;6.13;2.40;;;;;;;;;;5112871;28;20047;-51
2023/02/04 12:34:34;;;;;;;5.07;2.13;;;;;;;;;;5112152;28;20048;-52
2023/02/04 12:37:02;;;;;;;4.72;1.70;;;;;;;;;;5112605;28;20546;-52
2023/02/04 12:39:30;;;;;;;2.28;1.40;;;;;;;;;;5113029;28;20501;-55
2023/02/04 12:41:57;;;;;;;4.40;1.48;;;;;;;;;;5112983;28;20408;-54
2023/02/04 12:44:24;;;;;;;4.20;1.48;;;;;;;;;;5112494;28;20048;-50
2023/02/04 12:46:51;;;;;;;4.45;2.03;;;;;;;;;;5112471;28;20502;-53
2023/02/04 12:49:18;;;;;;;4.53;2.42;;;;;;;;;;5112443;28;20082;-53
2023/02/04 12:51:44;;;;;;;4.15;2.03;;;;;;;;;;5112151;28;20089;-52
2023/02/04 12:54:13;;;;;;;4.05;2.40;;;;;;;;;;5111674;28;20039;-49
2023/02/04 12:56:39;;;;;;;4.07;2.05;;;;;;;;;;5099480;28;20047;-50
2023/02/04 12:59:06;;;;;;;4.18;2.22;;;;;;;;;;5111842;27;20057;-52
2023/02/04 13:01:35;;;;;;;3.42;1.98;;;;;;;;;;5110932;28;20064;-48
2023/02/04 13:04:02;;;;;;;4.13;2.05;;;;;;;;;;5118176;27;20051;-51
2023/02/04 13:06:29;;;;;;;5.60;1.95;;;;;;;;;;5116188;27;20044;-55
2023/02/04 13:08:56;;;;;;;4.93;2.78;;;;;;;;;;5112154;28;20565;-52
2023/02/04 13:11:24;;;;;;;3.95;1.70;;;;;;;;;;5111601;28;20063;-49
2023/02/04 13:13:51;;;;;;;4.15;2.00;;;;;;;;;;5112585;27;20051;-48
2023/02/04 13:16:21;;;;;;;5.38;2.17;;;;;;;;;;5117435;27;20400;-49
2023/02/04 13:18:48;;;;;;;3.83;1.58;;;;;;;;;;5110207;28;20063;-55
2023/02/04 13:21:16;;;;;;;3.95;2.15;;;;;;;;;;5111561;27;20400;-53
2023/02/04 13:23:42;;;;;;;5.15;2.30;;;;;;;;;;5111455;28;20078;-53
2023/02/04 13:26:10;;;;;;;4.00;1.70;;;;;;;;;;5108375;28;20059;-50
2023/02/04 13:28:38;;;;;;;4.70;1.75;;;;;;;;;;5109761;28;20040;-52
2023/02/04 13:31:05;;;;;;;4.25;1.63;;;;;;;;;;5101728;28;20121;-50
2023/02/04 13:33:33;;;;;;;2.80;1.60;;;;;;;;;;5090913;28;20056;-52
2023/02/04 13:35:59;;;;;;;3.42;1.70;;;;;;;;;;5105589;28;20043;-50
2023/02/04 13:38:26;;;;;;;3.92;1.70;;;;;;;;;;5112461;28;20048;-48
2023/02/04 13:40:53;;;;;;;6.40;2.60;;;;;;;;;;5118544;27;20576;-52
2023/02/04 13:43:20;;;;;;;5.53;2.13;;;;;;;;;;5110424;28;20051;-53
2023/02/04 13:45:48;;;;;;;5.60;1.90;;;;;;;;;;5110220;27;20466;-50
2023/02/04 13:48:15;;;;;;;5.35;1.80;;;;;;;;;;5109710;28;20131;-50
2023/02/04 13:50:42;;;;;;;3.28;1.73;;;;;;;;;;5118122;27;20063;-53
2023/02/04 13:53:09;;;;;;;3.25;1.90;;;;;;;;;;5110089;28;20051;-51
2023/02/04 13:55:36;;;;;;;4.05;1.58;;;;;;;;;;5107225;22;20137;-78
2023/02/04 13:58:02;;;;;;;6.68;2.00;;;;;;;;;;5052889;28;20056;-77
2023/02/04 14:00:29;;;;;;;2.60;1.38;;;;;;;;;;5064896;28;20055;-77
2023/02/04 14:02:57;;;;;;;4.20;1.80;;;;;;;;;;5059562;28;20045;-76
2023/02/04 14:05:23;;;;;;;4.05;1.75;;;;;;;;;;5053116;28;20052;-76
2023/02/04 14:07:50;;;;;;;4.00;1.60;;;;;;;;;;5049406;28;20590;-77
2023/02/04 14:10:17;;;;;;;3.35;1.60;;;;;;;;;;5050388;28;20045;-75
2023/02/04 14:12:44;;;;;;;3.10;1.75;;;;;;;;;;5049560;28;20060;-77
2023/02/04 14:15:11;;;;;;;3.17;1.50;;;;;;;;;;5049975;28;20132;-77
2023/02/04 14:17:37;;;;;;;2.95;1.60;;;;;;;;;;5049925;28;20055;-76
2023/02/04 14:20:06;;;;;;;3.42;1.77;;;;;;;;;;5047863;28;20052;-76
2023/02/04 14:22:33;;;;;;;4.22;1.70;;;;;;;;;;5030230;28;20042;-76
2023/02/04 14:25:00;;;;;;;3.72;1.65;;;;;;;;;;5037303;28;20047;-77
2023/02/04 14:27:27;;;;;;;3.83;1.58;;;;;;;;;;5049670;28;20498;-76
2023/02/04 14:29:53;;;;;;;4.53;1.90;;;;;;;;;;5050953;28;20530;-76
2023/02/04 14:32:20;;;;;;;4.72;1.60;;;;;;;;;;5049572;28;20067;-78
2023/02/04 14:34:47;;;;;;;3.47;1.90;;;;;;;;;;5049825;28;20503;-77
2023/02/04 14:37:15;;;;;;;4.53;1.98;;;;;;;;;;5049609;28;20728;-77
2023/02/04 14:39:41;;;;;;;4.70;2.65;;;;;;;;;;5050768;28;20087;-78
2023/02/04 14:42:08;;;;;;;2.92;1.90;;;;;;;;;;5050906;28;20076;-77
2023/02/04 14:44:35;;;;;;;3.47;1.60;;;;;;;;;;5051206;28;20044;-76
2023/02/04 14:47:01;;;;;;;3.15;1.70;;;;;;;;;;5049899;28;20069;-77
2023/02/04 14:49:28;;;;;;;3.88;1.92;;;;;;;;;;5049405;28;20145;-76